createdAt,value
2018-01-08T00:01:09.389Z,29.50
2018-01-08T00:03:37.058Z,29.40
2018-01-08T00:06:04.778Z,28.40
2018-01-08T00:08:33.213Z,30.00
2018-01-08T00:11:00.900Z,30.83
2018-01-08T00:13:28.568Z,29.40
2018-01-08T00:15:56.230Z,30.80
2018-01-08T00:18:23.917Z,28.07
2018-01-08T00:20:51.622Z,30.70
2018-01-08T00:23:19.262Z,29.80
2018-01-08T00:25:46.941Z,30.23
2018-01-08T00:28:14.629Z,29.57
2018-01-08T00:30:42.277Z,29.93
2018-01-08T00:33:09.952Z,31.10
2018-01-08T00:35:37.637Z,30.50
2018-01-08T00:38:05.330Z,30.97
2018-01-08T00:40:33.012Z,29.43
2018-01-08T00:43:00.689Z,29.97
2018-01-08T00:45:28.317Z,29.53
2018-01-08T00:47:55.988Z,31.73
2018-01-08T00:50:23.661Z,28.60
2018-01-08T00:52:51.304Z,32.10
2018-01-08T00:55:18.968Z,31.50
2018-01-08T00:57:46.656Z,31.27
2018-01-08T01:00:14.324Z,32.70
2018-01-08T01:02:42.009Z,32.57
2018-01-08T01:05:09.715Z,33.57
2018-01-08T01:07:37.369Z,32.83
2018-01-08T01:10:05.707Z,31.83
2018-01-08T01:12:33.397Z,31.20
2018-01-08T01:15:01.046Z,34.80
2018-01-08T01:17:28.744Z,33.03
2018-01-08T01:19:56.422Z,33.80
2018-01-08T01:22:24.076Z,32.70
2018-01-08T01:24:51.747Z,37.50
2018-01-08T01:27:19.438Z,33.17
2018-01-08T01:29:47.081Z,32.33
2018-01-08T01:32:15.539Z,33.87
2018-01-08T01:34:43.224Z,33.37
2018-01-08T01:37:11.629Z,32.93
2018-01-08T01:39:40.010Z,34.40
2018-01-08T01:42:07.764Z,32.40
2018-01-08T01:44:35.452Z,33.53
2018-01-08T01:47:03.149Z,32.90
2018-01-08T01:49:31.592Z,34.03
2018-01-08T01:51:59.233Z,31.20
2018-01-08T01:54:27.676Z,32.93
2018-01-08T01:56:56.102Z,30.17
2018-01-08T01:59:23.737Z,32.97
2018-01-08T02:01:51.436Z,31.80
2018-01-08T02:04:19.117Z,32.70
2018-01-08T02:06:46.763Z,28.87
2018-01-08T02:09:14.453Z,30.57
2018-01-08T02:11:42.912Z,31.40
2018-01-08T02:14:11.389Z,30.30
2018-01-08T02:16:39.049Z,29.67
2018-01-08T02:19:06.737Z,29.93
2018-01-08T02:21:35.148Z,30.87
2018-01-08T02:24:03.686Z,29.00
2018-01-08T02:26:32.124Z,29.37
2018-01-08T02:28:59.774Z,28.87
2018-01-08T02:31:27.498Z,29.37
2018-01-08T02:33:55.968Z,31.73
2018-01-08T02:36:24.392Z,31.37
2018-01-08T02:38:52.133Z,29.67
2018-01-08T02:41:19.800Z,30.83
2018-01-08T02:43:47.445Z,30.73
2018-01-08T02:46:15.113Z,30.53
2018-01-08T02:48:42.791Z,30.97
2018-01-08T02:51:10.427Z,31.20
2018-01-08T02:53:38.088Z,31.10
2018-01-08T02:56:05.753Z,28.30
2018-01-08T02:58:33.388Z,30.87
2018-01-08T03:01:01.821Z,29.50
2018-01-08T03:03:29.487Z,29.40
2018-01-08T03:05:57.150Z,28.60
2018-01-08T03:08:24.820Z,31.77
2018-01-08T03:10:52.492Z,30.27
2018-01-08T03:13:20.157Z,28.93
2018-01-08T03:15:47.869Z,27.80
2018-01-08T03:18:16.328Z,30.03
2018-01-08T03:20:43.977Z,28.33
2018-01-08T03:23:12.420Z,28.00
2018-01-08T03:25:40.086Z,28.10
2018-01-08T03:28:07.723Z,28.97
2018-01-08T03:30:35.397Z,27.57
2018-01-08T03:33:03.062Z,29.00
2018-01-08T03:35:30.703Z,26.93
2018-01-08T03:37:58.382Z,27.27
2018-01-08T03:40:26.988Z,30.00
2018-01-08T03:42:55.408Z,27.07
2018-01-08T03:45:23.092Z,27.13
2018-01-08T03:47:50.791Z,26.30
2018-01-08T03:50:19.208Z,28.03
2018-01-08T03:52:46.890Z,24.97
2018-01-08T03:55:14.556Z,28.77
2018-01-08T03:57:42.212Z,25.90
2018-01-08T04:00:09.873Z,26.83
2018-01-08T04:02:37.558Z,27.20
2018-01-08T04:05:05.188Z,27.50
2018-01-08T04:07:32.864Z,26.10
2018-01-08T04:10:00.544Z,27.03
2018-01-08T04:12:28.979Z,27.33
2018-01-08T04:14:56.676Z,25.40
2018-01-08T04:17:24.362Z,24.73
2018-01-08T04:19:52.774Z,25.90
2018-01-08T04:22:20.464Z,24.80
2018-01-08T04:24:48.136Z,25.00
2018-01-08T04:27:15.769Z,24.50
2018-01-08T04:29:43.437Z,26.13
2018-01-08T04:32:11.124Z,25.87
2018-01-08T04:34:39.528Z,25.90
2018-01-08T04:37:07.204Z,26.30
2018-01-08T04:39:34.877Z,27.70
2018-01-08T04:42:02.535Z,26.80
2018-01-08T04:44:30.573Z,27.53
2018-01-08T04:46:58.849Z,27.10
2018-01-08T04:49:28.226Z,27.23
2018-01-08T04:51:55.886Z,27.83
2018-01-08T04:54:23.591Z,25.03
2018-01-08T04:56:51.285Z,27.27
2018-01-08T04:59:18.964Z,24.83
2018-01-08T05:01:46.637Z,26.23
2018-01-08T05:04:15.049Z,26.90
2018-01-08T05:06:42.741Z,26.17
2018-01-08T05:09:10.473Z,27.00
2018-01-08T05:11:38.138Z,24.27
2018-01-08T05:14:05.827Z,26.20
2018-01-08T05:16:33.513Z,25.40
2018-01-08T05:19:01.928Z,27.50
2018-01-08T05:21:29.588Z,26.43
2018-01-08T05:23:57.272Z,26.93
2018-01-08T05:26:24.912Z,27.47
2018-01-08T05:28:52.576Z,25.43
2018-01-08T05:31:20.236Z,24.90
2018-01-08T05:33:48.097Z,25.83
2018-01-08T05:36:15.777Z,25.50
2018-01-08T05:38:43.471Z,25.37
2018-01-08T05:41:11.112Z,25.43
2018-01-08T05:43:38.796Z,24.40
2018-01-08T05:46:07.298Z,25.30
2018-01-08T05:48:35.715Z,27.20
2018-01-08T05:51:03.410Z,24.23
2018-01-08T05:53:31.104Z,26.13
2018-01-08T05:55:58.745Z,26.90
2018-01-08T05:58:27.184Z,26.53
2018-01-08T06:00:54.851Z,25.53
2018-01-08T06:03:22.498Z,24.77
2018-01-08T06:05:50.169Z,25.00
2018-01-08T06:08:17.869Z,25.80
2018-01-08T06:10:46.280Z,25.27
2018-01-08T06:13:13.962Z,23.80
2018-01-08T06:15:41.645Z,24.70
2018-01-08T06:18:09.298Z,25.83
2018-01-08T06:20:37.016Z,23.67
2018-01-08T06:23:04.714Z,24.97
2018-01-08T06:25:32.370Z,26.97
2018-01-08T06:28:00.050Z,27.37
2018-01-08T06:30:27.738Z,26.93
2018-01-08T06:32:56.154Z,25.60
2018-01-08T06:35:23.837Z,26.10
2018-01-08T06:37:51.508Z,25.27
2018-01-08T06:40:19.144Z,24.17
2018-01-08T06:42:46.801Z,25.13
2018-01-08T06:45:14.469Z,26.00
2018-01-08T06:47:42.204Z,24.33
2018-01-08T06:50:09.886Z,23.60
2018-01-08T06:52:37.550Z,23.97
2018-01-08T06:55:06.044Z,23.70
2018-01-08T06:57:33.725Z,24.40
2018-01-08T07:00:01.405Z,23.63
2018-01-08T07:02:29.105Z,27.20
2018-01-08T07:04:56.787Z,25.57
2018-01-08T07:07:24.483Z,25.30
2018-01-08T07:09:52.923Z,23.27
2018-01-08T07:12:20.613Z,23.87
2018-01-08T07:14:48.279Z,24.67
2018-01-08T07:17:16.689Z,24.23
2018-01-08T07:19:44.364Z,24.60
2018-01-08T07:22:12.016Z,24.73
2018-01-08T07:24:39.686Z,22.20
2018-01-08T07:27:07.379Z,22.50
2018-01-08T07:29:35.079Z,22.50
2018-01-08T07:32:02.776Z,23.13
2018-01-08T07:34:30.473Z,21.70
2018-01-08T07:36:58.930Z,22.90
2018-01-08T07:39:26.604Z,20.33
2018-01-08T07:41:54.287Z,22.43
2018-01-08T07:44:22.721Z,22.20
2018-01-08T07:46:50.626Z,22.07
2018-01-08T07:49:19.056Z,21.80
2018-01-08T07:51:46.768Z,21.87
2018-01-08T07:54:15.173Z,22.30
2018-01-08T07:56:42.858Z,21.90
2018-01-08T07:59:10.548Z,22.10
2018-01-08T08:01:38.213Z,22.50
2018-01-08T08:04:05.882Z,19.10
2018-01-08T08:06:34.317Z,19.30
2018-01-08T08:09:01.980Z,21.03
2018-01-08T08:11:29.662Z,21.10
2018-01-08T08:13:57.333Z,20.07
2018-01-08T08:16:25.758Z,21.30
2018-01-08T08:18:53.519Z,19.93
2018-01-08T08:21:21.199Z,21.87
2018-01-08T08:23:48.833Z,22.90
2018-01-08T08:26:17.289Z,22.87
2018-01-08T08:28:45.727Z,21.60
2018-01-08T08:31:13.360Z,22.90
2018-01-08T08:33:41.026Z,20.77
2018-01-08T08:36:08.711Z,22.10
2018-01-08T08:38:36.374Z,21.17
2018-01-08T08:41:04.045Z,20.80
2018-01-08T08:43:31.733Z,19.67
2018-01-08T08:45:59.465Z,20.70
2018-01-08T08:48:27.145Z,18.40
2018-01-08T08:50:55.603Z,19.70
2018-01-08T08:53:23.248Z,18.70
2018-01-08T08:55:50.946Z,20.17
2018-01-08T08:58:19.401Z,20.27
2018-01-08T09:00:47.075Z,20.63
2018-01-08T09:03:14.750Z,20.17
2018-01-08T09:05:43.213Z,19.77
2018-01-08T09:08:11.140Z,18.10
2018-01-08T09:10:38.838Z,18.37
2018-01-08T09:13:06.526Z,19.67
2018-01-08T09:15:34.182Z,18.67
2018-01-08T09:18:02.642Z,20.57
2018-01-08T09:20:31.089Z,19.90
2018-01-08T09:22:58.758Z,19.50
2018-01-08T09:25:26.421Z,18.30
2018-01-08T09:27:54.158Z,18.30
2018-01-08T09:30:21.824Z,16.47
2018-01-08T09:32:49.513Z,19.70
2018-01-08T09:35:17.206Z,18.43
2018-01-08T09:37:44.880Z,18.97
2018-01-08T09:40:12.556Z,19.10
2018-01-08T09:42:40.224Z,18.30
2018-01-08T09:45:07.906Z,18.10
2018-01-08T09:47:35.586Z,17.97
2018-01-08T09:50:04.089Z,17.40
2018-01-08T09:52:31.846Z,17.83
2018-01-08T09:54:59.528Z,17.00
2018-01-08T09:57:27.985Z,16.47
2018-01-08T09:59:55.646Z,17.00
2018-01-08T10:02:22.829Z,16.50
2018-01-08T10:05:02.257Z,16.83
2018-01-08T10:07:41.892Z,16.90
2018-01-08T10:10:21.529Z,16.50
2018-01-08T10:13:01.119Z,16.07
2018-01-08T10:15:40.557Z,15.30
2018-01-08T10:18:20.118Z,15.33
2018-01-08T10:20:48.575Z,16.90
2018-01-08T10:23:16.213Z,15.33
2018-01-08T10:25:43.910Z,16.20
2018-01-08T10:28:12.394Z,16.17
2018-01-08T10:30:40.092Z,14.90
2018-01-08T10:33:07.817Z,15.80
2018-01-08T10:35:36.331Z,15.03
2018-01-08T10:38:04.016Z,15.63
2018-01-08T10:40:31.733Z,15.83
2018-01-08T10:43:05.118Z,15.20
2018-01-08T10:45:39.262Z,15.87
2018-01-08T10:48:12.697Z,15.83
2018-01-08T10:50:46.078Z,14.97
2018-01-08T10:53:14.353Z,14.63
2018-01-08T10:55:42.102Z,14.80
2018-01-08T10:58:09.837Z,15.07
2018-01-08T11:00:37.651Z,13.80
2018-01-08T11:03:10.968Z,13.53
2018-01-08T11:05:39.487Z,15.00
2018-01-08T11:08:07.144Z,14.83
2018-01-08T11:10:35.600Z,14.80
2018-01-08T11:13:04.077Z,13.97
2018-01-08T11:15:32.583Z,13.23
2018-01-08T11:18:00.278Z,13.27
2018-01-08T11:20:27.953Z,12.80
2018-01-08T11:22:55.643Z,12.93
2018-01-08T11:25:24.116Z,13.43
2018-01-08T11:27:52.623Z,13.67
2018-01-08T11:30:20.297Z,13.60
2018-01-08T11:32:47.992Z,11.93
2018-01-08T11:35:15.733Z,12.90
2018-01-08T11:37:43.449Z,13.00
2018-01-08T11:40:11.928Z,13.17
2018-01-08T11:42:39.663Z,13.27
2018-01-08T11:45:07.363Z,13.10
2018-01-08T11:47:35.096Z,13.20
2018-01-08T11:50:03.687Z,13.00
2018-01-08T11:52:31.396Z,12.87
2018-01-08T11:54:59.124Z,14.10
2018-01-08T11:57:26.885Z,10.80
2018-01-08T11:59:54.587Z,12.27
2018-01-08T12:02:22.332Z,11.57
2018-01-08T12:04:50.131Z,11.47
2018-01-08T12:07:17.800Z,11.30
2018-01-08T12:09:45.530Z,12.73
2018-01-08T12:12:13.274Z,12.40
2018-01-08T12:14:40.980Z,11.83
2018-01-08T12:17:08.724Z,10.80
2018-01-08T12:19:36.400Z,12.10
2018-01-08T12:22:04.086Z,11.33
2018-01-08T12:24:32.552Z,11.47
2018-01-08T12:27:00.265Z,11.73
2018-01-08T12:29:27.924Z,11.83
2018-01-08T12:31:55.648Z,11.80
2018-01-08T12:34:24.135Z,11.43
2018-01-08T12:36:52.753Z,11.53
2018-01-08T12:39:20.429Z,10.07
2018-01-08T12:41:48.109Z,10.73
2018-01-08T12:44:15.777Z,11.20
2018-01-08T12:46:43.465Z,11.50
2018-01-08T12:49:11.133Z,12.03
2018-01-08T12:51:38.784Z,11.13
2018-01-08T12:54:07.582Z,11.20
2018-01-08T12:56:35.285Z,10.20
2018-01-08T12:59:02.989Z,11.33
2018-01-08T13:01:31.532Z,11.83
2018-01-08T13:03:59.310Z,10.17
2018-01-08T13:06:27.089Z,10.93
2018-01-08T13:08:55.643Z,11.60
2018-01-08T13:11:23.401Z,10.40
2018-01-08T13:13:51.067Z,10.70
2018-01-08T13:16:18.874Z,11.60
2018-01-08T13:18:46.645Z,11.10
2018-01-08T13:21:14.317Z,11.40
2018-01-08T13:23:42.126Z,11.03
2018-01-08T13:26:09.928Z,12.27
2018-01-08T13:28:37.653Z,11.60
2018-01-08T13:31:05.510Z,11.13
2018-01-08T13:33:33.265Z,11.63
2018-01-08T13:36:00.937Z,11.57
2018-01-08T13:38:28.687Z,12.00
2018-01-08T13:40:56.801Z,11.27
2018-01-08T13:43:25.293Z,12.40
2018-01-08T13:45:53.093Z,11.63
2018-01-08T13:48:20.928Z,11.67
2018-01-08T13:50:48.636Z,11.83
2018-01-08T13:53:16.450Z,12.70
2018-01-08T13:55:44.243Z,10.77
2018-01-08T13:58:11.950Z,12.20
2018-01-08T14:00:40.468Z,11.60
2018-01-08T14:03:08.239Z,11.57
2018-01-08T14:05:36.411Z,10.50
2018-01-08T14:08:04.304Z,10.90
2018-01-08T14:10:32.125Z,11.43
2018-01-08T14:13:00.620Z,12.10
2018-01-08T14:15:28.525Z,11.57
2018-01-08T14:17:56.238Z,11.67
2018-01-08T14:20:24.128Z,11.20
2018-01-08T14:22:51.874Z,11.63
2018-01-08T14:25:19.534Z,11.30
2018-01-08T14:27:47.346Z,11.23
2018-01-08T14:30:15.944Z,11.47
2018-01-08T14:32:43.675Z,12.03
2018-01-08T14:35:11.357Z,12.70
2018-01-08T14:37:39.105Z,13.17
2018-01-08T14:40:06.947Z,11.43
2018-01-08T14:42:34.620Z,12.33
2018-01-08T14:45:02.337Z,12.27
2018-01-08T14:47:30.030Z,11.10
2018-01-08T14:49:57.691Z,10.70
2018-01-08T14:52:25.369Z,11.73
2018-01-08T14:54:53.221Z,11.30
2018-01-08T14:57:20.948Z,11.20
2018-01-08T14:59:48.655Z,11.27
2018-01-08T15:02:16.348Z,10.37
2018-01-08T15:04:44.020Z,10.43
2018-01-08T15:07:11.881Z,11.63
2018-01-08T15:09:40.652Z,11.50
2018-01-08T15:12:09.085Z,12.57
2018-01-08T15:14:36.848Z,12.13
2018-01-08T15:17:04.640Z,13.20
2018-01-08T15:19:33.081Z,11.83
2018-01-08T15:22:00.776Z,11.87
2018-01-08T15:24:28.582Z,11.40
2018-01-08T15:26:56.284Z,12.97
2018-01-08T15:29:24.761Z,12.10
2018-01-08T15:31:52.457Z,13.83
2018-01-08T15:34:20.881Z,14.53
2018-01-08T15:36:48.606Z,14.37
2018-01-08T15:39:16.316Z,15.37
2018-01-08T15:41:44.002Z,13.53
2018-01-08T15:44:11.695Z,13.70
2018-01-08T15:46:39.404Z,13.83
2018-01-08T15:49:07.089Z,12.63
2018-01-08T15:51:35.674Z,13.70
2018-01-08T15:54:04.149Z,12.93
2018-01-08T15:56:32.601Z,13.70
2018-01-08T15:59:00.361Z,13.60
2018-01-08T16:01:28.217Z,13.93
2018-01-08T16:03:55.892Z,16.30
2018-01-08T16:06:23.601Z,13.63
2018-01-08T16:08:51.347Z,14.40
2018-01-08T16:11:19.809Z,13.63
2018-01-08T16:13:47.556Z,15.27
2018-01-08T16:16:16.024Z,14.43
2018-01-08T16:18:45.660Z,15.00
2018-01-08T16:21:15.231Z,15.63
2018-01-08T16:23:43.815Z,14.27
2018-01-08T16:26:11.855Z,15.00
2018-01-08T16:28:39.602Z,16.13
2018-01-08T16:31:08.084Z,14.80
2018-01-08T16:33:35.794Z,14.03
2018-01-08T16:36:03.544Z,13.83
2018-01-08T16:38:31.231Z,13.67
2018-01-08T16:40:58.939Z,12.20
2018-01-08T16:43:26.734Z,11.93
2018-01-08T16:45:54.425Z,12.07
2018-01-08T16:48:23.062Z,11.20
2018-01-08T16:50:50.924Z,11.50
2018-01-08T16:53:25.689Z,10.80
2018-01-08T16:55:53.484Z,10.40
2018-01-08T16:58:22.185Z,9.27
2018-01-08T17:00:49.870Z,9.93
2018-01-08T17:03:17.638Z,26.00
2018-01-08T17:05:45.301Z,13.33
2018-01-08T17:08:13.097Z,16.10
2018-01-08T17:10:40.799Z,16.83
2018-01-08T17:13:08.765Z,10.17
2018-01-08T17:15:36.416Z,11.07
2018-01-08T17:18:04.160Z,14.30
2018-01-08T17:20:32.755Z,12.30
2018-01-08T17:23:00.716Z,11.33
2018-01-08T17:25:29.273Z,11.43
2018-01-08T17:27:57.022Z,12.10
2018-01-08T17:30:24.678Z,12.17
2018-01-08T17:32:52.879Z,12.80
2018-01-08T17:35:21.069Z,11.53
2018-01-08T17:37:49.845Z,11.80
2018-01-08T17:40:18.551Z,12.43
2018-01-08T17:42:46.444Z,13.27
2018-01-08T17:45:14.327Z,12.27
2018-01-08T17:47:42.041Z,11.57
2018-01-08T17:50:10.161Z,11.63
2018-01-08T17:52:37.855Z,12.43
2018-01-08T17:55:06.365Z,11.67
2018-01-08T17:57:34.075Z,12.40
2018-01-08T18:00:01.765Z,13.07
2018-01-08T18:02:30.369Z,13.00
2018-01-08T18:04:58.057Z,12.53
2018-01-08T18:07:25.960Z,13.10
2018-01-08T18:09:54.405Z,12.87
2018-01-08T18:12:22.121Z,11.90
2018-01-08T18:14:49.797Z,12.20
2018-01-08T18:17:17.543Z,13.63
2018-01-08T18:19:45.245Z,12.57
2018-01-08T18:22:13.693Z,12.80
2018-01-08T18:24:41.384Z,11.87
2018-01-08T18:27:09.074Z,12.87
2018-01-08T18:29:36.714Z,13.43
2018-01-08T18:32:04.425Z,12.60
2018-01-08T18:34:32.097Z,13.17
2018-01-08T18:36:59.779Z,12.67
2018-01-08T18:39:27.568Z,12.83
2018-01-08T18:41:55.443Z,12.83
2018-01-08T18:44:24.043Z,12.90
2018-01-08T18:46:52.576Z,21.33
2018-01-08T18:49:20.475Z,15.20
2018-01-08T18:51:48.212Z,16.63
2018-01-08T18:54:15.950Z,14.03
2018-01-08T18:56:43.691Z,14.17
2018-01-08T18:59:12.334Z,15.30
2018-01-08T19:01:40.159Z,14.53
2018-01-08T19:04:08.445Z,15.20
2018-01-08T19:06:36.152Z,16.57
2018-01-08T19:09:04.926Z,16.93
2018-01-08T19:11:33.482Z,15.53
2018-01-08T19:14:02.109Z,14.50
2018-01-08T19:16:29.978Z,16.13
2018-01-08T19:18:59.039Z,19.70
2018-01-08T19:21:26.926Z,15.67
2018-01-08T19:23:54.987Z,14.67
2018-01-08T19:26:23.777Z,14.30
2018-01-08T19:28:52.326Z,17.87
2018-01-08T19:31:20.217Z,19.27
2018-01-08T19:33:48.489Z,15.20
2018-01-08T19:36:17.101Z,15.33
2018-01-08T19:38:45.081Z,15.50
2018-01-08T19:41:12.802Z,18.00
2018-01-08T19:43:41.470Z,16.70
2018-01-08T19:46:09.242Z,17.50
2018-01-08T19:48:36.992Z,15.23
2018-01-08T19:51:04.744Z,14.30
2018-01-08T19:53:32.885Z,14.20
2018-01-08T19:56:00.873Z,15.10
2018-01-08T19:58:28.647Z,15.20
2018-01-08T20:00:56.461Z,14.77
2018-01-08T20:03:24.513Z,16.27
2018-01-08T20:05:53.151Z,16.23
2018-01-08T20:08:20.909Z,14.17
2018-01-08T20:10:48.786Z,26.80
2018-01-08T20:13:16.601Z,16.70
2018-01-08T20:15:44.824Z,17.63
2018-01-08T20:18:12.843Z,15.70
2018-01-08T20:20:41.664Z,20.40
2018-01-08T20:23:09.449Z,15.67
2018-01-08T20:25:37.228Z,16.93
2018-01-08T20:28:05.038Z,15.87
2018-01-08T20:30:32.955Z,15.20
2018-01-08T20:33:00.928Z,15.90
2018-01-08T20:35:28.861Z,14.87
2018-01-08T20:37:56.907Z,16.10
2018-01-08T20:40:24.979Z,16.13
2018-01-08T20:42:52.920Z,17.00
2018-01-08T20:45:21.429Z,16.30
2018-01-08T20:47:49.236Z,15.50
2018-01-08T20:50:17.728Z,15.60
2018-01-08T20:52:45.588Z,16.27
2018-01-08T20:55:13.368Z,14.30
2018-01-08T20:57:41.270Z,13.50
2018-01-08T21:00:09.124Z,14.53
2018-01-08T21:02:37.152Z,14.80
2018-01-08T21:05:05.130Z,14.53
2018-01-08T21:07:33.656Z,13.93
2018-01-08T21:10:01.461Z,13.10
2018-01-08T21:12:29.284Z,14.70
2018-01-08T21:14:57.104Z,14.43
2018-01-08T21:17:25.583Z,12.87
2018-01-08T21:19:54.012Z,13.60
2018-01-08T21:22:21.687Z,13.80
2018-01-08T21:24:49.366Z,14.00
2018-01-08T21:27:17.015Z,13.40
2018-01-08T21:29:44.715Z,13.77
2018-01-08T21:32:12.646Z,13.13
2018-01-08T21:34:41.073Z,13.97
2018-01-08T21:37:08.746Z,14.70
2018-01-08T21:39:36.425Z,14.00
2018-01-08T21:42:04.084Z,13.57
2018-01-08T21:44:31.836Z,12.80
2018-01-08T21:46:59.842Z,13.60
2018-01-08T21:49:27.854Z,14.77
2018-01-08T21:51:55.711Z,12.97
2018-01-08T21:54:23.596Z,13.60
2018-01-08T21:56:51.366Z,14.83
2018-01-08T21:59:19.245Z,12.70
2018-01-08T22:01:47.033Z,13.87
2018-01-08T22:04:15.617Z,13.80
2018-01-08T22:06:43.612Z,13.00
2018-01-08T22:09:11.400Z,14.33
2018-01-08T22:11:39.301Z,15.33
2018-01-08T22:14:08.243Z,13.73
2018-01-08T22:16:36.304Z,13.93
2018-01-08T22:19:04.506Z,13.50
2018-01-08T22:21:32.425Z,14.90
2018-01-08T22:24:00.381Z,14.60
2018-01-08T22:26:28.893Z,14.70
2018-01-08T22:28:56.626Z,14.07
2018-01-08T22:31:25.129Z,14.23
2018-01-08T22:33:52.864Z,12.80
2018-01-08T22:36:21.406Z,14.27
2018-01-08T22:38:49.221Z,14.17
2018-01-08T22:41:16.990Z,13.23
2018-01-08T22:43:44.747Z,14.10
2018-01-08T22:46:13.318Z,14.57
2018-01-08T22:48:41.325Z,14.90
2018-01-08T22:51:09.155Z,14.70
2018-01-08T22:53:36.966Z,14.20
2018-01-08T22:56:05.067Z,13.90
2018-01-08T22:58:33.028Z,15.10
2018-01-08T23:01:00.801Z,15.00
2018-01-08T23:03:28.439Z,13.43
2018-01-08T23:05:56.113Z,14.00
2018-01-08T23:08:23.787Z,14.90
2018-01-08T23:10:52.214Z,14.97
2018-01-08T23:13:19.884Z,15.47
2018-01-08T23:15:47.571Z,15.43
2018-01-08T23:18:15.224Z,14.97
2018-01-08T23:20:42.894Z,14.97
2018-01-08T23:23:10.642Z,13.47
2018-01-08T23:25:38.316Z,14.87
2018-01-08T23:28:06.009Z,13.97
2018-01-08T23:30:33.700Z,15.27
2018-01-08T23:33:01.351Z,14.50
2018-01-08T23:35:29.028Z,13.73
2018-01-08T23:37:56.713Z,15.00
2018-01-08T23:40:24.358Z,13.83
2018-01-08T23:42:52.033Z,13.77
2018-01-08T23:45:19.696Z,13.37
2018-01-08T23:47:47.372Z,14.13
2018-01-08T23:50:15.045Z,15.30
2018-01-08T23:52:43.510Z,15.30
2018-01-08T23:55:11.161Z,14.00
2018-01-08T23:57:38.841Z,14.80
